Portada
METAR-TAF:

METAR-TAF

Aeroports :

Rundu, Namíbia

latitud: 17-57-20S, longitud: 019-43-25E, altitud: 1106 m

METAR: manca

Hora: 21:05 (19:05 UTC)

Pronòstic

L'informe es va fer fa 2 hores i 5 minuts, a les 17:00 UTC
Pronòstic vàlid del 22 a les 18 UTC al 23 a les 03 UTC
Vent 6 kt del Nord/Nord-Oest
Visibilitat 10 km o més
Escasses núvols a una alçada de 4000 ft, Cumulonimbus.
tempesta, pluja
Evolucionant progressivament
l' 22 a les 20 UTC al 22 a les 22 UTC
Vent 5 kt del Est

TAF: FYRU 221700Z 2218/2303 33006KT 9999 -TSRA FEW040CB BECMG 2220/2222 10005KT NSW NSC

Observacions i pronòstics meteorològics de més de 4000 aeroports (METAR i TAF).

Les estacions disponibles són els punts grocs i vermells al mapa.

Posi el ratolí al punt desitjat per veure el nom de l'estació.

Feu clic per veure les observacions i els pronòstics meteorològics.

Per canviar el mapa: feu clic els botons verds amb una creu de color negre per apropar; al botó verd amb un guió per allunyar la imatge; o en les fletxes verdes per a mapes adjacents.


METAR-TAF: